Time;durP1;ratioP1;P1;durP2;ratioP2;P2;SDS_P1;SDS_P2;PMS_P1;PMS_P2;Temp;Humidity;BMP_temperature;BMP_pressure;BME280_temperature;BME280_humidity;BME280_pressure;Samples;Min_cycle;Max_cycle;Signal;HPM_P1;HPM_P2
2021/01/04 00:02:01;;;;;;;;;;;;;;;-1.56;96.94;100346.50;6253331;22;19915;-74
2021/01/04 00:04:45;;;;;;;;;;;;;;;-1.58;96.93;100346.72;6229268;22;19907;-74
2021/01/04 00:07:14;;;;;;;;;;;;;;;-1.69;96.90;100352.84;6281351;22;19907;-74
2021/01/04 00:09:42;;;;;;;;;;;;;;;-1.75;96.89;100348.28;6228840;22;19910;-74
2021/01/04 00:12:17;;;;;;;;;;;;;;;-1.72;97.14;100350.56;6280899;22;20227;-74
2021/01/04 00:14:46;;;;;;;;;;;;;;;-1.71;96.94;100345.94;6228611;22;20308;-74
2021/01/04 00:17:17;;;;;;;;;;;;;;;-1.74;96.92;100347.22;6254027;22;20337;-74
2021/01/04 00:19:48;;;;;;;;;;;;;;;-1.79;96.99;100333.41;6254516;22;19952;-74
2021/01/04 00:22:16;;;;;;;;;;;;;;;-1.81;97.19;100335.56;6228427;22;20232;-73
2021/01/04 00:24:49;;;;;;;;;;;;;;;-1.80;97.04;100334.47;6228670;22;20308;-74
2021/01/04 00:27:17;;;;;;;;;;;;;;;-1.81;97.21;100339.09;6254263;22;19907;-74
2021/01/04 00:29:42;;;;;;;;;;;;;;;-1.81;97.12;100336.38;6203942;22;19903;-74
2021/01/04 00:32:21;;;;;;;;;;;;;;;-1.81;97.14;100341.00;6228186;22;19978;-74
2021/01/04 00:34:51;;;;;;;;;;;;;;;-1.82;97.05;100340.13;6253472;22;19903;-74
2021/01/04 00:37:35;;;;;;;;;;;;;;;-1.83;97.07;100335.75;6254306;22;20712;-74
2021/01/04 00:40:00;;;;;;;;;;;;;;;-1.88;96.97;100330.13;6281516;22;20232;-74
2021/01/04 00:42:35;;;;;;;;;;;;;;;-1.87;97.04;100330.94;6281144;22;19903;-74
2021/01/04 00:45:19;;;;;;;;;;;;;;;-1.88;96.92;100332.00;6281141;22;19907;-74
2021/01/04 00:47:47;;;;;;;;;;;;;;;-1.91;96.81;100324.28;6253407;22;20301;-74
2021/01/04 00:50:36;;;;;;;;;;;;;;;-1.95;96.75;100323.88;6281254;22;19907;-74
2021/01/04 00:53:21;;;;;;;;;;;;;;;-1.93;96.77;100320.94;6197923;22;19951;-74
2021/01/04 00:56:06;;;;;;;;;;;;;;;-1.95;96.79;100315.72;6280329;22;19942;-74
2021/01/04 00:58:45;;;;;;;;;;;;;;;-1.96;96.84;100316.75;6254253;22;19942;-74
2021/01/04 01:01:10;;;;;;;;;;;;;;;-1.95;96.93;100314.84;6227664;22;19907;-74
2021/01/04 01:03:44;;;;;;;;;;;;;;;-1.97;97.12;100317.00;6280454;22;19918;-73
2021/01/04 01:06:23;;;;;;;;;;;;;;;-1.96;97.10;100318.66;6280981;22;19903;-74
2021/01/04 01:08:53;;;;;;;;;;;;;;;-1.96;97.03;100324.09;6254254;22;19910;-73
2021/01/04 01:11:25;;;;;;;;;;;;;;;-1.95;96.97;100325.75;6254943;22;20308;-74
2021/01/04 01:14:26;;;;;;;;;;;;;;;-1.98;97.01;100326.19;6253476;22;19903;-73
2021/01/04 01:17:10;;;;;;;;;;;;;;;-1.96;96.80;100324.91;6132488;23;19909;-74
2021/01/04 01:19:38;;;;;;;;;;;;;;;-1.95;97.14;100323.03;6132857;23;20779;-74
2021/01/04 01:22:03;;;;;;;;;;;;;;;-1.94;97.15;100319.28;6133109;23;19994;-74
2021/01/04 01:24:29;;;;;;;;;;;;;;;-1.92;97.43;100319.88;6133225;23;19908;-74
2021/01/04 01:27:09;;;;;;;;;;;;;;;-1.91;97.39;100316.13;6134664;23;19996;-74
2021/01/04 01:29:47;;;;;;;;;;;;;;;-1.89;97.54;100319.47;6134192;23;19915;-74
2021/01/04 01:32:27;;;;;;;;;;;;;;;-1.88;97.48;100316.50;6133861;23;19910;-74
2021/01/04 01:34:52;;;;;;;;;;;;;;;-1.86;97.71;100310.84;6134258;23;19911;-74
2021/01/04 01:37:18;;;;;;;;;;;;;;;-1.85;97.76;100312.50;6159265;23;19948;-74
2021/01/04 01:40:01;;;;;;;;;;;;;;;-1.81;97.70;100303.72;6134601;23;19912;-74
2021/01/04 01:42:45;;;;;;;;;;;;;;;-1.78;97.74;100309.75;6159063;23;19964;-74
2021/01/04 01:45:16;;;;;;;;;;;;;;;-1.72;97.81;100304.28;6158918;23;20076;-73
2021/01/04 01:47:44;;;;;;;;;;;;;;;-1.70;97.82;100312.22;6158885;23;19909;-74
2021/01/04 01:50:12;;;;;;;;;;;;;;;-1.68;97.74;100305.50;6185149;22;19947;-73
2021/01/04 01:52:38;;;;;;;;;;;;;;;-1.65;97.74;100305.06;6282529;22;19903;-73
2021/01/04 01:55:32;;;;;;;;;;;;;;;-1.62;97.63;100307.34;6282415;22;20339;-74
2021/01/04 01:57:57;;;;;;;;;;;;;;;-1.59;97.66;100298.75;6255657;22;20206;-74
2021/01/04 02:00:49;;;;;;;;;;;;;;;-1.62;97.64;100304.63;6255231;22;19997;-74
2021/01/04 02:03:20;;;;;;;;;;;;;;;-1.62;97.84;100301.91;6249131;22;20263;-74
2021/01/04 02:05:52;;;;;;;;;;;;;;;-1.61;97.87;100305.47;6255428;22;20263;-74
2021/01/04 02:08:19;;;;;;;;;;;;;;;-1.60;97.85;100305.25;6282114;22;19970;-74
2021/01/04 02:10:49;;;;;;;;;;;;;;;-1.61;97.98;100308.19;6229767;22;19904;-73
2021/01/04 02:13:19;;;;;;;;;;;;;;;-1.62;97.99;100310.06;6255365;22;20422;-74
2021/01/04 02:15:48;;;;;;;;;;;;;;;-1.59;97.90;100306.94;6254876;22;19903;-74
2021/01/04 02:18:19;;;;;;;;;;;;;;;-1.59;97.94;100303.34;6254963;22;19939;-74
2021/01/04 02:20:48;;;;;;;;;;;;;;;-1.57;97.93;100310.25;6255360;22;20312;-74
2021/01/04 02:23:48;;;;;;;;;;;;;;;-1.57;97.98;100310.25;6255609;22;19907;-74
2021/01/04 02:26:15;;;;;;;;;;;;;;;-1.58;97.98;100308.59;6158967;23;20342;-73
2021/01/04 02:28:46;;;;;;;;;;;;;;;-1.57;98.17;100312.97;6236391;22;19903;-74
2021/01/04 02:31:11;;;;;;;;;;;;;;;-1.54;98.00;100313.59;6229248;22;19907;-74
2021/01/04 02:33:37;;;;;;;;;;;;;;;-1.50;97.99;100312.13;6254704;22;19941;-74
2021/01/04 02:36:02;;;;;;;;;;;;;;;-1.51;98.21;100315.88;6255794;22;19926;-74
2021/01/04 02:38:28;;;;;;;;;;;;;;;-1.48;98.01;100310.00;6254946;22;20201;-74
2021/01/04 02:40:53;;;;;;;;;;;;;;;-1.49;98.03;100314.59;6255074;22;19907;-73
2021/01/04 02:43:19;;;;;;;;;;;;;;;-1.47;98.03;100309.78;6254568;22;19907;-74
2021/01/04 02:45:45;;;;;;;;;;;;;;;-1.50;97.85;100320.28;6204653;22;19907;-74
2021/01/04 02:48:10;;;;;;;;;;;;;;;-1.47;98.10;100317.94;6254725;22;19950;-74
2021/01/04 02:50:35;;;;;;;;;;;;;;;-1.48;98.14;100315.44;6282224;22;19911;-73
2021/01/04 02:53:04;;;;;;;;;;;;;;;-1.44;98.02;100317.50;6255361;22;19914;-74
2021/01/04 02:55:36;;;;;;;;;;;;;;;-1.44;98.08;100322.13;6255141;22;19910;-73
2021/01/04 02:58:12;;;;;;;;;;;;;;;-1.44;98.13;100313.97;6229593;22;19907;-74
2021/01/04 03:00:37;;;;;;;;;;;;;;;-1.42;98.09;100320.00;6203935;22;19933;-74
2021/01/04 03:03:03;;;;;;;;;;;;;;;-1.40;98.20;100317.91;6228765;22;19942;-73
2021/01/04 03:05:28;;;;;;;;;;;;;;;-1.42;98.35;100315.41;6254721;22;19968;-74
2021/01/04 03:07:57;;;;;;;;;;;;;;;-1.38;98.29;100311.19;6229149;22;19903;-74
2021/01/04 03:10:22;;;;;;;;;;;;;;;-1.39;98.28;100314.97;6254379;22;19903;-74
2021/01/04 03:12:51;;;;;;;;;;;;;;;-1.39;98.28;100308.69;6281365;22;19953;-74
2021/01/04 03:15:23;;;;;;;;;;;;;;;-1.39;98.31;100303.25;6229507;22;19903;-74
2021/01/04 03:17:48;;;;;;;;;;;;;;;-1.38;98.37;100305.72;6254696;22;19910;-74
2021/01/04 03:20:15;;;;;;;;;;;;;;;-1.37;98.34;100301.09;6254381;22;19907;-74
2021/01/04 03:22:40;;;;;;;;;;;;;;;-1.37;98.49;100301.94;6229328;22;20387;-74
2021/01/04 03:25:29;;;;;;;;;;;;;;;-1.33;98.49;100296.91;6281518;22;19903;-74
2021/01/04 03:27:54;;;;;;;;;;;;;;;-1.30;98.35;100301.06;6238612;22;20332;-74
2021/01/04 03:30:20;;;;;;;;;;;;;;;-1.32;98.37;100298.56;6254621;22;19903;-74
2021/01/04 03:32:45;;;;;;;;;;;;;;;-1.26;98.41;100302.28;6254200;22;19904;-74
2021/01/04 03:35:11;;;;;;;;;;;;;;;-1.27;98.15;100300.63;6228479;22;20239;-74
2021/01/04 03:37:36;;;;;;;;;;;;;;;-1.25;98.15;100307.53;6281839;22;19903;-74
2021/01/04 03:40:02;;;;;;;;;;;;;;;-1.24;98.06;100309.19;6229440;22;19903;-73
2021/01/04 03:42:27;;;;;;;;;;;;;;;-1.21;98.17;100306.03;6281354;22;20224;-73
2021/01/04 03:44:52;;;;;;;;;;;;;;;-1.24;98.35;100314.63;6203965;22;19909;-74
2021/01/04 03:47:18;;;;;;;;;;;;;;;-1.24;98.25;100309.19;6254042;22;19903;-74
2021/01/04 03:49:43;;;;;;;;;;;;;;;-1.24;98.35;100311.91;6281587;22;19903;-74
2021/01/04 03:52:09;;;;;;;;;;;;;;;-1.22;98.35;100309.81;6281563;22;19902;-74
2021/01/04 03:54:34;;;;;;;;;;;;;;;-1.23;98.54;100313.56;6254248;22;19956;-74
2021/01/04 03:56:59;;;;;;;;;;;;;;;-1.21;98.79;100316.91;6254982;22;19904;-74
2021/01/04 03:59:25;;;;;;;;;;;;;;;-1.22;99.52;100312.53;6254184;22;19930;-74
2021/01/04 04:01:53;;;;;;;;;;;;;;;-1.17;99.70;100318.16;6228368;22;19911;-74
2021/01/04 04:04:18;;;;;;;;;;;;;;;-1.18;100.00;100304.75;6228846;22;19982;-74
2021/01/04 04:06:44;;;;;;;;;;;;;;;-1.16;100.00;100313.53;6229311;22;20227;-74
2021/01/04 04:09:09;;;;;;;;;;;;;;;-1.11;100.00;100308.25;6254260;22;20240;-74
2021/01/04 04:11:35;;;;;;;;;;;;;;;-1.10;100.00;100309.09;6228748;22;19914;-74
2021/01/04 04:14:00;;;;;;;;;;;;;;;-1.03;100.00;100309.84;6281230;22;20086;-74
2021/01/04 04:16:26;;;;;;;;;;;;;;;-1.02;100.00;100306.09;6203668;22;19909;-74
2021/01/04 04:18:51;;;;;;;;;;;;;;;-0.99;100.00;100316.53;6254384;22;19991;-74
2021/01/04 04:21:16;;;;;;;;;;;;;;;-0.97;100.00;100311.72;6229031;22;19910;-74
2021/01/04 04:23:42;;;;;;;;;;;;;;;-0.96;100.00;100311.47;6253247;22;19961;-74
2021/01/04 04:26:14;;;;;;;;;;;;;;;-0.94;100.00;100303.09;6254617;22;19907;-74
2021/01/04 04:28:39;;;;;;;;;;;;;;;-0.94;100.00;100303.09;6254310;22;19910;-74
2021/01/04 04:31:04;;;;;;;;;;;;;;;-0.96;100.00;100294.28;6228189;22;19974;-74
2021/01/04 04:33:30;;;;;;;;;;;;;;;-0.96;100.00;100295.13;6227906;22;19972;-74
2021/01/04 04:35:55;;;;;;;;;;;;;;;-0.94;100.00;100297.63;6229202;22;19953;-74
2021/01/04 04:38:20;;;;;;;;;;;;;;;-0.96;100.00;100283.38;6254413;22;19907;-74
2021/01/04 04:40:48;;;;;;;;;;;;;;;-0.95;100.00;100293.22;6254069;22;19909;-74
2021/01/04 04:43:13;;;;;;;;;;;;;;;-0.94;100.00;100289.44;6228330;22;19903;-74
2021/01/04 04:45:39;;;;;;;;;;;;;;;-0.94;100.00;100290.28;6254154;22;20520;-74
2021/01/04 04:48:04;;;;;;;;;;;;;;;-0.94;100.00;100286.72;6229378;22;19903;-74
2021/01/04 04:50:39;;;;;;;;;;;;;;;-0.90;100.00;100291.47;6254311;22;20005;-74
2021/01/04 04:53:23;;;;;;;;;;;;;;;-0.90;99.93;100287.94;6281069;22;19910;-74
2021/01/04 04:55:51;;;;;;;;;;;;;;;-0.89;100.00;100289.63;6254289;22;19903;-74
2021/01/04 04:58:16;;;;;;;;;;;;;;;-0.87;99.67;100286.66;6254174;22;19931;-74
2021/01/04 05:00:53;;;;;;;;;;;;;;;-0.88;99.53;100283.09;6229512;22;19910;-73
2021/01/04 05:03:29;;;;;;;;;;;;;;;-0.87;100.00;100289.38;6229847;22;19918;-74
2021/01/04 05:06:15;;;;;;;;;;;;;;;-0.86;99.72;100289.16;6230904;22;19907;-74
2021/01/04 05:08:44;;;;;;;;;;;;;;;-0.84;99.78;100283.47;6230456;22;19903;-74
2021/01/04 05:11:10;;;;;;;;;;;;;;;-0.86;99.95;100286.44;6230963;22;20286;-74
2021/01/04 05:13:42;;;;;;;;;;;;;;;-0.85;100.00;100288.09;6230170;22;19907;-74
2021/01/04 05:16:12;;;;;;;;;;;;;;;-0.85;100.00;100287.25;6205521;22;19903;-74
2021/01/04 05:19:04;;;;;;;;;;;;;;;-0.84;99.84;100287.03;6255412;22;20691;-74
2021/01/04 05:21:48;;;;;;;;;;;;;;;-0.81;99.81;100286.56;6209948;22;19907;-74
2021/01/04 05:24:13;;;;;;;;;;;;;;;-0.82;99.77;100290.38;6256200;22;19907;-74
2021/01/04 05:26:58;;;;;;;;;;;;;;;-0.81;100.00;100286.56;6230359;22;19910;-74
2021/01/04 05:29:32;;;;;;;;;;;;;;;-0.79;100.00;100281.75;6282765;22;19938;-74
2021/01/04 05:32:16;;;;;;;;;;;;;;;-0.79;99.98;100281.75;6255618;22;19910;-74
2021/01/04 05:34:43;;;;;;;;;;;;;;;-0.79;99.90;100289.09;6281901;22;20240;-74
2021/01/04 05:37:17;;;;;;;;;;;;;;;-0.79;99.55;100292.66;6256253;22;19930;-74
2021/01/04 05:39:51;;;;;;;;;;;;;;;-0.79;99.53;100289.09;6205645;22;19907;-74
2021/01/04 05:42:17;;;;;;;;;;;;;;;-0.78;99.81;100296.19;6254789;22;20227;-74
2021/01/04 05:44:57;;;;;;;;;;;;;;;-0.77;99.68;100289.72;6229870;22;19938;-74
2021/01/04 05:47:42;;;;;;;;;;;;;;;-0.75;100.00;100302.06;6255237;22;19949;-74
2021/01/04 05:50:19;;;;;;;;;;;;;;;-0.77;99.69;100301.44;6205724;22;19952;-74
2021/01/04 05:52:45;;;;;;;;;;;;;;;-0.75;99.38;100295.78;6205224;22;19985;-74
2021/01/04 05:55:11;;;;;;;;;;;;;;;-0.75;99.70;100304.78;6229446;22;19953;-74
2021/01/04 05:57:46;;;;;;;;;;;;;;;-0.75;99.70;100304.78;6229987;22;19938;-74
2021/01/04 06:00:12;;;;;;;;;;;;;;;-0.70;99.64;100301.38;6254978;22;19907;-74
2021/01/04 06:02:38;;;;;;;;;;;;;;;-0.70;99.49;100302.22;6205488;22;19911;-74
2021/01/04 06:05:09;;;;;;;;;;;;;;;-0.70;99.40;100294.03;6255786;22;20301;-74
2021/01/04 06:07:35;;;;;;;;;;;;;;;-0.71;99.18;100305.16;6255662;22;20232;-74
2021/01/04 06:10:01;;;;;;;;;;;;;;;-0.70;99.62;100299.50;6224130;22;19957;-74
2021/01/04 06:12:33;;;;;;;;;;;;;;;-0.72;99.46;100296.16;6228823;22;19903;-74
2021/01/04 06:14:58;;;;;;;;;;;;;;;-0.71;99.37;100308.72;6254885;22;19970;-74
2021/01/04 06:17:28;;;;;;;;;;;;;;;-0.71;99.37;100306.00;6228973;22;19903;-74
2021/01/04 06:19:54;;;;;;;;;;;;;;;-0.70;99.47;100301.38;6204985;22;19904;-74
2021/01/04 06:22:24;;;;;;;;;;;;;;;-0.68;99.29;100305.53;6205180;22;19914;-74
2021/01/04 06:24:56;;;;;;;;;;;;;;;-0.69;99.52;100309.34;6255854;22;19907;-74
2021/01/04 06:27:31;;;;;;;;;;;;;;;-0.72;100.00;100307.06;6228652;22;19906;-74
2021/01/04 06:29:59;;;;;;;;;;;;;;;-0.69;99.78;100313.97;6255375;22;19939;-74
2021/01/04 06:32:29;;;;;;;;;;;;;;;-0.71;99.73;100308.72;6204462;22;19904;-74
2021/01/04 06:35:17;;;;;;;;;;;;;;;-0.69;99.70;100309.34;6230232;22;19903;-74
2021/01/04 06:37:42;;;;;;;;;;;;;;;-0.71;100.00;100308.72;6230004;22;19949;-74
2021/01/04 06:40:09;;;;;;;;;;;;;;;-0.69;100.00;100306.59;6204813;22;19903;-74
2021/01/04 06:42:38;;;;;;;;;;;;;;;-0.70;100.00;100315.88;6229071;22;19907;-74
2021/01/04 06:45:03;;;;;;;;;;;;;;;-0.70;100.00;100313.13;6254590;22;19903;-74
2021/01/04 06:47:49;;;;;;;;;;;;;;;-0.68;100.00;100318.34;6281689;22;19910;-74
2021/01/04 06:50:17;;;;;;;;;;;;;;;-0.72;100.00;100315.25;6280827;22;19907;-74
2021/01/04 06:52:55;;;;;;;;;;;;;;;-0.70;100.00;100302.22;6254975;22;19974;-74
2021/01/04 06:55:32;;;;;;;;;;;;;;;-0.70;100.00;100304.94;6281853;22;19946;-74
2021/01/04 06:57:58;;;;;;;;;;;;;;;-0.70;100.00;100313.13;6282258;22;19953;-74
2021/01/04 07:00:24;;;;;;;;;;;;;;;-0.71;100.00;100310.63;6255015;22;19903;-74
2021/01/04 07:03:05;;;;;;;;;;;;;;;-0.69;100.00;100306.59;6229880;22;19992;-74
2021/01/04 07:05:36;;;;;;;;;;;;;;;-0.70;100.00;100306.81;6281969;22;19930;-74
2021/01/04 07:08:11;;;;;;;;;;;;;;;-0.71;100.00;100316.91;6254383;22;19907;-74
2021/01/04 07:10:55;;;;;;;;;;;;;;;-0.70;100.00;100312.28;6255089;22;19909;-74
2021/01/04 07:13:40;;;;;;;;;;;;;;;-0.69;100.00;100314.78;6229145;22;19903;-74
2021/01/04 07:16:17;;;;;;;;;;;;;;;-0.70;100.00;100307.69;6229869;22;19909;-74
2021/01/04 07:18:57;;;;;;;;;;;;;;;-0.70;100.00;100313.13;6227951;22;19909;-76
2021/01/04 07:21:41;;;;;;;;;;;;;;;-0.69;100.00;100313.97;6204389;22;19904;-74
2021/01/04 07:24:25;;;;;;;;;;;;;;;-0.70;100.00;100310.41;6281511;22;19946;-74
2021/01/04 07:27:12;;;;;;;;;;;;;;;-0.69;100.00;100309.34;6254962;22;19903;-74
2021/01/04 07:29:38;;;;;;;;;;;;;;;-0.69;100.00;100309.34;6230527;22;19903;-74
2021/01/04 07:32:06;;;;;;;;;;;;;;;-0.70;100.00;100318.59;6280932;22;20312;-74
2021/01/04 07:34:40;;;;;;;;;;;;;;;-0.67;100.00;100311.81;6204361;22;19903;-74
2021/01/04 07:37:25;;;;;;;;;;;;;;;-0.65;100.00;100312.44;6229407;22;19953;-74
2021/01/04 07:39:54;;;;;;;;;;;;;;;-0.70;100.00;100313.13;6229876;22;19903;-75
2021/01/04 07:42:38;;;;;;;;;;;;;;;-0.66;100.00;100307.22;6203768;22;20300;-74
2021/01/04 07:45:22;;;;;;;;;;;;;;;-0.66;100.00;100312.69;6229586;22;20308;-74
2021/01/04 07:48:03;;;;;;;;;;;;;;;-0.69;100.00;100312.06;6254426;22;19903;-74
2021/01/04 07:50:47;;;;;;;;;;;;;;;-0.65;100.00;100308.88;6281341;22;20371;-74
2021/01/04 07:53:31;;;;;;;;;;;;;;;-0.65;100.00;100312.44;6254459;22;19996;-74
2021/01/04 07:56:06;;;;;;;;;;;;;;;-0.65;100.00;100309.72;6281241;22;19910;-74
2021/01/04 07:58:43;;;;;;;;;;;;;;;-0.64;100.00;100307.81;6254235;22;19903;-74
2021/01/04 08:01:23;;;;;;;;;;;;;;;-0.64;100.00;100313.28;6227801;22;19903;-74
2021/01/04 08:03:52;;;;;;;;;;;;;;;-0.66;100.00;100313.50;6229059;22;19911;-74
2021/01/04 08:06:20;;;;;;;;;;;;;;;-0.63;100.00;100317.69;6254216;22;19907;-74
2021/01/04 08:08:47;;;;;;;;;;;;;;;-0.60;100.00;100309.88;6281862;22;20209;-75
2021/01/04 08:11:31;;;;;;;;;;;;;;;-0.62;100.00;100308.44;6228960;22;19907;-74
2021/01/04 08:14:15;;;;;;;;;;;;;;;-0.63;100.00;100306.78;6254099;22;19903;-74
2021/01/04 08:17:00;;;;;;;;;;;;;;;-0.64;100.00;100311.41;6228750;22;20333;-74
2021/01/04 08:19:25;;;;;;;;;;;;;;;-0.64;100.00;100300.50;6229345;22;20312;-75
2021/01/04 08:22:00;;;;;;;;;;;;;;;-0.61;100.00;100307.34;6254587;22;20126;-74
2021/01/04 08:24:34;;;;;;;;;;;;;;;-0.62;100.00;100308.44;6204293;22;19934;-74
2021/01/04 08:27:23;;;;;;;;;;;;;;;-0.63;100.00;100312.22;6253965;22;19903;-74
2021/01/04 08:29:54;;;;;;;;;;;;;;;-0.62;100.00;100308.44;6223926;22;20382;-74
2021/01/04 08:32:20;;;;;;;;;;;;;;;-0.63;100.00;100307.59;6280869;22;19972;-74
2021/01/04 08:34:46;;;;;;;;;;;;;;;-0.59;100.00;100306.06;6229604;22;19903;-74
2021/01/04 08:37:12;;;;;;;;;;;;;;;-0.61;100.00;100296.44;6206032;22;19938;-74
2021/01/04 08:39:47;;;;;;;;;;;;;;;-0.59;100.00;100297.06;6231173;22;19903;-75
2021/01/04 08:42:27;;;;;;;;;;;;;;;-0.55;100.00;100299.13;6205192;22;19903;-75
2021/01/04 08:44:57;;;;;;;;;;;;;;;-0.56;100.00;100302.91;6229680;22;19907;-75
2021/01/04 08:47:33;;;;;;;;;;;;;;;-0.57;100.00;100306.69;6256677;22;20320;-74
2021/01/04 08:50:07;;;;;;;;;;;;;;;-0.56;100.00;100302.91;6231003;22;19903;-75
2021/01/04 08:52:45;;;;;;;;;;;;;;;-0.58;100.00;100305.03;6205870;22;19903;-74
2021/01/04 08:55:31;;;;;;;;;;;;;;;-0.58;99.98;100299.59;6231119;22;19926;-75
2021/01/04 08:57:59;;;;;;;;;;;;;;;-0.55;99.99;100304.59;6253447;22;19987;-74
2021/01/04 09:00:25;;;;;;;;;;;;;;;-0.55;100.00;100301.03;6256722;22;19926;-74
2021/01/04 09:02:53;;;;;;;;;;;;;;;-0.57;100.00;100301.25;6229690;22;19946;-74
2021/01/04 09:05:30;;;;;;;;;;;;;;;-0.55;100.00;100292.84;6256365;22;19914;-74
2021/01/04 09:07:58;;;;;;;;;;;;;;;-0.58;100.00;100288.66;6255768;22;19907;-74
2021/01/04 09:10:25;;;;;;;;;;;;;;;-0.51;100.00;100294.88;6231509;22;19910;-74
2021/01/04 09:12:54;;;;;;;;;;;;;;;-0.56;100.00;100296.63;6231249;22;19911;-74
2021/01/04 09:15:20;;;;;;;;;;;;;;;-0.55;100.00;100292.84;6256097;22;19922;-74
2021/01/04 09:18:01;;;;;;;;;;;;;;;-0.55;100.00;100284.66;6254892;22;19903;-74
2021/01/04 09:20:46;;;;;;;;;;;;;;;-0.55;100.00;100281.94;6255785;22;19903;-74
2021/01/04 09:23:21;;;;;;;;;;;;;;;-0.56;100.00;100285.69;6283305;22;19943;-74
2021/01/04 09:25:48;;;;;;;;;;;;;;;-0.56;100.00;100291.97;6230203;22;19904;-74
2021/01/04 09:28:14;;;;;;;;;;;;;;;-0.56;100.00;100294.72;6204973;22;19904;-74
2021/01/04 09:30:40;;;;;;;;;;;;;;;-0.55;100.00;100301.03;6255274;22;20316;-74
2021/01/04 09:33:07;;;;;;;;;;;;;;;-0.54;100.00;100305.41;6256167;22;19903;-74
2021/01/04 09:35:33;;;;;;;;;;;;;;;-0.53;100.00;100307.06;6230597;22;19938;-74
2021/01/04 09:37:59;;;;;;;;;;;;;;;-0.52;100.00;100308.75;6230604;22;19910;-74
2021/01/04 09:40:24;;;;;;;;;;;;;;;-0.54;100.00;100310.88;6282995;22;20219;-74
2021/01/04 09:42:50;;;;;;;;;;;;;;;-0.54;100.00;100305.41;6230427;22;19907;-74
2021/01/04 09:45:17;;;;;;;;;;;;;;;-0.51;100.00;100305.78;6282954;22;19903;-74
2021/01/04 09:47:44;;;;;;;;;;;;;;;-0.47;100.00;100303.47;6255226;22;19903;-72
2021/01/04 09:50:23;;;;;;;;;;;;;;;-0.47;100.00;100301.56;6255506;22;19907;-76
2021/01/04 09:52:53;;;;;;;;;;;;;;;-0.47;100.00;100309.75;6282746;22;19903;-76
2021/01/04 09:55:20;;;;;;;;;;;;;;;-0.46;100.00;100307.84;6205707;22;19911;-76
2021/01/04 09:57:46;;;;;;;;;;;;;;;-0.45;100.00;100314.97;6229682;22;20327;-76
2021/01/04 10:00:13;;;;;;;;;;;;;;;-0.47;100.00;100312.47;6230330;22;19907;-76
2021/01/04 10:02:38;;;;;;;;;;;;;;;-0.44;100.00;100310.34;6204322;22;19990;-76
2021/01/04 10:05:07;;;;;;;;;;;;;;;-0.43;100.00;100307.38;6255866;22;19933;-76
2021/01/04 10:07:32;;;;;;;;;;;;;;;-0.43;100.00;100318.31;6282471;22;19911;-76
2021/01/04 10:09:57;;;;;;;;;;;;;;;-0.40;100.00;100312.38;6229966;22;20022;-76
2021/01/04 10:12:24;;;;;;;;;;;;;;;-0.39;100.00;100314.06;6282464;22;19961;-76
2021/01/04 10:14:53;;;;;;;;;;;;;;;-0.36;100.00;100312.75;6255952;22;19903;-76
2021/01/04 10:17:19;;;;;;;;;;;;;;;-0.32;100.00;100319.44;6281209;22;19914;-76
2021/01/04 10:20:00;;;;;;;;;;;;;;;-0.30;100.00;100309.97;6255476;22;20236;-76
2021/01/04 10:22:26;;;;;;;;;;;;;;;-0.26;100.00;100300.25;6282470;22;19961;-76
2021/01/04 10:24:59;;;;;;;;;;;;;;;-0.23;100.00;100305.25;6256073;22;19907;-74
2021/01/04 10:27:25;;;;;;;;;;;;;;;-0.18;100.00;100306.47;6230823;22;19977;-74
2021/01/04 10:29:52;;;;;;;;;;;;;;;-0.14;100.00;100289.44;6255329;22;19907;-74
2021/01/04 10:32:23;;;;;;;;;;;;;;;-0.11;100.00;100288.97;6255164;22;19910;-74
2021/01/04 10:34:49;;;;;;;;;;;;;;;-0.06;100.00;100293.72;6255382;22;19903;-74
2021/01/04 10:37:18;;;;;;;;;;;;;;;-0.03;100.00;100285.06;6255200;22;19965;-74
2021/01/04 10:39:43;;;;;;;;;;;;;;;0.02;100.00;100282.47;6282029;22;20212;-74
2021/01/04 10:42:11;;;;;;;;;;;;;;;0.07;100.00;100282.63;6281612;22;19953;-74
2021/01/04 10:44:37;;;;;;;;;;;;;;;0.08;100.00;100276.09;6255614;22;19903;-74
2021/01/04 10:47:02;;;;;;;;;;;;;;;0.12;100.00;100266.41;6255188;22;19914;-74
2021/01/04 10:49:29;;;;;;;;;;;;;;;0.16;100.00;100269.50;6281911;22;20307;-74
2021/01/04 10:51:55;;;;;;;;;;;;;;;0.20;100.00;100263.34;6254892;22;19929;-74
2021/01/04 10:54:43;;;;;;;;;;;;;;;0.25;100.00;100267.25;6229578;22;20308;-74
2021/01/04 10:57:09;;;;;;;;;;;;;;;0.29;100.00;100263.03;6239115;22;19903;-74
2021/01/04 10:59:36;;;;;;;;;;;;;;;0.31;100.00;100259.00;6281677;22;19910;-74
2021/01/04 11:02:02;;;;;;;;;;;;;;;0.39;100.00;100263.25;6253565;22;19915;-74
2021/01/04 11:04:27;;;;;;;;;;;;;;;0.42;100.00;100260.09;6254920;22;19907;-74
2021/01/04 11:07:06;;;;;;;;;;;;;;;0.46;100.00;100255.81;6255238;22;20267;-74
2021/01/04 11:09:36;;;;;;;;;;;;;;;0.51;100.00;100252.38;6254792;22;19958;-75
2021/01/04 11:12:07;;;;;;;;;;;;;;;0.55;100.00;100254.41;6254427;22;20390;-75
2021/01/04 11:14:33;;;;;;;;;;;;;;;0.58;100.00;100255.84;6229430;22;20317;-74
2021/01/04 11:17:08;;;;;;;;;;;;;;;0.63;100.00;100254.06;6254086;22;19955;-74
2021/01/04 11:19:34;;;;;;;;;;;;;;;0.70;100.00;100250.38;6204805;22;19903;-74
2021/01/04 11:22:18;;;;;;;;;;;;;;;0.73;100.00;100258.13;6254394;22;19974;-74
2021/01/04 11:24:44;;;;;;;;;;;;;;;0.74;100.00;100246.13;6254708;22;19914;-74
2021/01/04 11:27:09;;;;;;;;;;;;;;;0.78;100.00;100245.44;6281210;22;20309;-73
2021/01/04 11:29:37;;;;;;;;;;;;;;;0.82;100.00;100234.84;6255111;22;19903;-73
2021/01/04 11:32:02;;;;;;;;;;;;;;;0.85;100.00;100231.63;6229098;22;19907;-73
2021/01/04 11:34:28;;;;;;;;;;;;;;;0.89;100.00;100232.81;6254666;22;19910;-73
2021/01/04 11:36:53;;;;;;;;;;;;;;;0.93;100.00;100227.72;6281462;22;20380;-73
2021/01/04 11:39:19;;;;;;;;;;;;;;;0.97;100.00;100226.16;6281730;22;19955;-73
2021/01/04 11:41:45;;;;;;;;;;;;;;;1.03;100.00;100228.78;6230038;22;19987;-73
2021/01/04 11:44:11;;;;;;;;;;;;;;;1.10;100.00;100224.03;6228661;22;19903;-73
2021/01/04 11:46:36;;;;;;;;;;;;;;;1.15;100.00;100222.50;6228531;22;20274;-73
2021/01/04 11:49:02;;;;;;;;;;;;;;;1.17;100.00;100217.59;6280887;22;20372;-73
2021/01/04 11:51:27;;;;;;;;;;;;;;;1.26;100.00;100221.66;6254637;22;20373;-73
2021/01/04 11:53:53;;;;;;;;;;;;;;;1.31;100.00;100216.28;6281562;22;19903;-73
2021/01/04 11:56:18;;;;;;;;;;;;;;;1.35;100.00;100214.72;6228800;22;19989;-73
2021/01/04 11:58:46;;;;;;;;;;;;;;;1.39;100.00;100218.63;6228716;22;19903;-73
2021/01/04 12:01:11;;;;;;;;;;;;;;;1.42;100.00;100214.56;6254832;22;19903;-73
2021/01/04 12:03:37;;;;;;;;;;;;;;;1.45;100.00;100204.00;6198423;23;19911;-73
2021/01/04 12:06:02;;;;;;;;;;;;;;;1.49;100.00;100198.88;6173655;23;19926;-73
2021/01/04 12:08:27;;;;;;;;;;;;;;;1.51;100.00;100203.03;6250827;23;19903;-73
2021/01/04 12:10:53;;;;;;;;;;;;;;;1.58;100.00;100202.88;6198727;23;19957;-73
2021/01/04 12:13:18;;;;;;;;;;;;;;;1.62;100.00;100203.25;6197632;23;19911;-73
2021/01/04 12:15:44;;;;;;;;;;;;;;;1.65;100.00;100209.06;6222681;23;19903;-73
2021/01/04 12:18:09;;;;;;;;;;;;;;;1.67;99.96;100200.59;6198200;23;19904;-73
2021/01/04 12:20:35;;;;;;;;;;;;;;;1.71;99.73;100194.41;6174527;23;19907;-73
2021/01/04 12:23:00;;;;;;;;;;;;;;;1.69;99.48;100188.31;6223559;23;19914;-73
2021/01/04 12:25:25;;;;;;;;;;;;;;;1.71;99.58;100177.97;6198722;23;19907;-73
2021/01/04 12:27:51;;;;;;;;;;;;;;;1.72;99.33;100171.41;6174216;23;19965;-73
2021/01/04 12:30:17;;;;;;;;;;;;;;;1.70;99.13;100175.47;6223830;23;19910;-73
2021/01/04 12:32:43;;;;;;;;;;;;;;;1.73;99.29;100172.28;6249982;23;19927;-73
2021/01/04 12:35:09;;;;;;;;;;;;;;;1.75;99.02;100172.84;6249124;23;20202;-73
2021/01/04 12:37:35;;;;;;;;;;;;;;;1.80;99.06;100170.19;6250750;23;19931;-73
2021/01/04 12:40:00;;;;;;;;;;;;;;;1.77;98.92;100171.50;6224044;23;19955;-73
2021/01/04 12:42:26;;;;;;;;;;;;;;;1.79;99.02;100171.28;6248731;22;20240;-73
2021/01/04 12:44:51;;;;;;;;;;;;;;;1.81;98.47;100179.25;6198555;23;19903;-73
2021/01/04 12:47:17;;;;;;;;;;;;;;;1.81;98.56;100168.28;6223279;23;20309;-73
2021/01/04 12:49:43;;;;;;;;;;;;;;;1.88;98.78;100168.97;6173786;23;19910;-73
2021/01/04 12:52:08;;;;;;;;;;;;;;;1.85;98.03;100164.00;6198603;23;19903;-73